Time;durP1;ratioP1;P1;durP2;ratioP2;P2;SDS_P1;SDS_P2;PMS_P1;PMS_P2;Temp;Humidity;BMP_temperature;BMP_pressure;BME280_temperature;BME280_humidity;BME280_pressure;Samples;Min_cycle;Max_cycle;Signal;HPM_P1;HPM_P2
2022/11/29 00:01:32;;;;;;;25.67;11.90;;;6.80;99.90;;;;;;5031370;28;20237;-60
2022/11/29 00:04:00;;;;;;;21.83;10.63;;;6.80;99.90;;;;;;5077828;28;20229;-60
2022/11/29 00:06:29;;;;;;;27.70;11.90;;;6.80;99.90;;;;;;5071484;28;20278;-60
2022/11/29 00:08:59;;;;;;;35.90;15.20;;;6.80;99.90;;;;;;5069306;28;20292;-60
2022/11/29 00:14:15;;;;;;;28.63;13.07;;;6.70;99.90;;;;;;5072537;28;20195;-60
2022/11/29 00:16:42;;;;;;;31.63;14.37;;;6.70;99.90;;;;;;5071690;28;20243;-60
2022/11/29 00:19:10;;;;;;;33.50;14.97;;;6.70;99.90;;;;;;5081211;28;20288;-60
2022/11/29 00:21:37;;;;;;;25.20;12.40;;;6.70;99.90;;;;;;5071471;28;20331;-60
2022/11/29 00:24:06;;;;;;;26.07;12.70;;;6.70;99.90;;;;;;5071167;28;20189;-60
2022/11/29 00:26:33;;;;;;;25.90;12.30;;;6.70;99.90;;;;;;5077664;28;20334;-60
2022/11/29 00:29:00;;;;;;;27.20;11.13;;;6.80;99.90;;;;;;5071611;28;20235;-60
2022/11/29 00:31:30;;;;;;;29.53;12.73;;;6.80;99.90;;;;;;5071138;28;20196;-60
2022/11/29 00:33:57;;;;;;;30.23;13.33;;;6.80;99.90;;;;;;5071188;28;20245;-60
2022/11/29 00:36:24;;;;;;;22.40;10.67;;;6.80;99.90;;;;;;5070900;28;20212;-60
2022/11/29 00:38:51;;;;;;;23.13;10.53;;;6.70;99.90;;;;;;5070543;28;20193;-60
2022/11/29 00:41:20;;;;;;;20.40;10.73;;;6.70;99.90;;;;;;5071167;28;20201;-60
2022/11/29 00:43:47;;;;;;;31.80;13.53;;;6.70;99.90;;;;;;5052899;28;20207;-60
2022/11/29 00:46:14;;;;;;;24.80;11.43;;;6.70;99.90;;;;;;5051096;28;20189;-60
2022/11/29 00:48:41;;;;;;;26.87;11.47;;;6.70;99.90;;;;;;5070948;28;20823;-61
2022/11/29 00:51:08;;;;;;;23.50;11.00;;;6.70;99.90;;;;;;5070598;28;20190;-61
2022/11/29 00:53:36;;;;;;;27.67;12.37;;;6.80;99.90;;;;;;5072132;28;20193;-60
2022/11/29 00:56:04;;;;;;;31.97;14.50;;;6.80;99.90;;;;;;5077995;28;20220;-62
2022/11/29 00:58:33;;;;;;;28.27;13.13;;;6.80;99.90;;;;;;5069456;28;20295;-59
2022/11/29 01:01:00;;;;;;;31.73;14.10;;;6.70;99.90;;;;;;5051827;28;20208;-60
2022/11/29 01:03:27;;;;;;;28.43;12.80;;;6.70;99.90;;;;;;5070318;28;20319;-60
2022/11/29 01:06:00;;;;;;;32.93;14.23;;;6.70;99.90;;;;;;5067906;28;20197;-60
2022/11/29 01:08:27;;;;;;;25.77;12.33;;;6.70;99.90;;;;;;5074307;28;20197;-60
2022/11/29 01:11:02;;;;;;;33.03;13.60;;;6.60;99.90;;;;;;5078448;28;20187;-60
2022/11/29 01:13:29;;;;;;;35.13;15.07;;;6.60;99.90;;;;;;5070645;28;20190;-60
2022/11/29 01:15:58;;;;;;;30.40;13.93;;;6.60;99.90;;;;;;5067887;28;20199;-60
2022/11/29 01:18:25;;;;;;;31.17;13.07;;;6.60;99.90;;;;;;5070022;28;20557;-60
2022/11/29 01:20:57;;;;;;;29.90;13.70;;;6.50;99.90;;;;;;5051444;28;20239;-59
2022/11/29 01:23:24;;;;;;;32.27;13.03;;;6.50;99.90;;;;;;5068470;28;20264;-60
2022/11/29 01:26:02;;;;;;;29.03;12.17;;;6.60;99.90;;;;;;5070300;28;20644;-60
2022/11/29 01:28:30;;;;;;;30.53;12.83;;;6.50;99.90;;;;;;5069678;28;20270;-60
2022/11/29 01:31:27;;;;;;;30.17;13.70;;;6.50;99.90;;;;;;5080646;28;20210;-59
2022/11/29 01:33:54;;;;;;;24.30;11.70;;;6.60;99.90;;;;;;5084888;28;20197;-60
2022/11/29 01:36:21;;;;;;;25.83;11.97;;;6.60;99.90;;;;;;5066074;28;20214;-61
2022/11/29 01:38:48;;;;;;;30.80;13.80;;;6.60;99.90;;;;;;5083189;28;20197;-61
2022/11/29 01:41:18;;;;;;;32.57;14.60;;;6.60;99.90;;;;;;5083913;28;20671;-61
2022/11/29 01:43:56;;;;;;;30.03;14.37;;;6.60;99.90;;;;;;5082658;28;20200;-60
2022/11/29 01:46:25;;;;;;;28.77;13.67;;;6.60;99.90;;;;;;5085891;28;20664;-60
2022/11/29 01:48:57;;;;;;;28.60;13.53;;;6.60;99.90;;;;;;5084404;28;20662;-60
2022/11/29 01:51:26;;;;;;;26.97;12.40;;;6.60;99.90;;;;;;5084807;28;20216;-60
2022/11/29 01:53:54;;;;;;;31.17;13.63;;;6.60;99.90;;;;;;5077188;28;20204;-60
2022/11/29 01:56:22;;;;;;;26.67;12.10;;;6.60;99.90;;;;;;5084352;28;20283;-60
2022/11/29 01:58:49;;;;;;;35.77;15.37;;;6.60;99.90;;;;;;5084304;28;20575;-60
2022/11/29 02:01:16;;;;;;;32.23;15.33;;;6.60;99.90;;;;;;5084429;28;20659;-60
2022/11/29 02:03:45;;;;;;;32.60;14.87;;;6.60;99.90;;;;;;5083503;28;20232;-60
2022/11/29 02:06:12;;;;;;;37.43;16.83;;;6.60;99.90;;;;;;5082435;28;20732;-60
2022/11/29 02:08:41;;;;;;;32.60;15.30;;;6.50;99.90;;;;;;5081979;28;20316;-60
2022/11/29 02:11:25;;;;;;;33.63;14.63;;;6.50;99.90;;;;;;5087331;28;20196;-60
2022/11/29 02:14:04;;;;;;;31.37;14.93;;;6.50;99.90;;;;;;5084862;28;20257;-60
2022/11/29 02:16:37;;;;;;;36.40;16.57;;;6.50;99.90;;;;;;5065302;28;20306;-59
2022/11/29 02:19:19;;;;;;;31.80;14.40;;;6.50;99.90;;;;;;5081284;28;20292;-60
2022/11/29 02:21:49;;;;;;;25.13;12.03;;;6.50;99.90;;;;;;5081090;28;20197;-60
2022/11/29 02:24:41;;;;;;;31.20;13.87;;;6.50;99.90;;;;;;5063735;28;20212;-60
2022/11/29 02:27:29;;;;;;;28.47;13.40;;;6.40;99.90;;;;;;5081668;28;20295;-60
2022/11/29 02:30:09;;;;;;;30.37;14.23;;;6.50;99.90;;;;;;5082691;28;20200;-60
2022/11/29 02:33:09;;;;;;;31.93;14.13;;;6.50;99.90;;;;;;5084623;28;20665;-60
2022/11/29 02:36:00;;;;;;;29.13;13.10;;;6.40;99.90;;;;;;5060265;28;20230;-60
2022/11/29 02:38:49;;;;;;;29.50;12.40;;;6.40;99.90;;;;;;5082993;28;20209;-60
2022/11/29 02:41:30;;;;;;;29.70;13.30;;;6.40;99.90;;;;;;5084249;28;20210;-60
2022/11/29 02:44:40;;;;;;;24.07;11.60;;;6.40;99.90;;;;;;5083922;28;20253;-60
2022/11/29 02:47:20;;;;;;;19.63;9.80;;;6.40;99.90;;;;;;5000300;28;20298;-60
2022/11/29 02:50:20;;;;;;;29.97;13.97;;;6.40;99.90;;;;;;5076403;28;20582;-60
2022/11/29 02:52:56;;;;;;;26.67;12.77;;;6.40;99.90;;;;;;5084206;28;20663;-60
2022/11/29 02:55:29;;;;;;;27.87;12.57;;;6.40;99.90;;;;;;5082422;28;20242;-60
2022/11/29 02:58:01;;;;;;;25.10;12.30;;;6.30;99.90;;;;;;5053922;28;20311;-61
2022/11/29 03:00:28;;;;;;;28.63;11.80;;;6.30;99.90;;;;;;5067722;28;20208;-60
2022/11/29 03:03:03;;;;;;;26.90;11.53;;;6.20;99.90;;;;;;5068565;28;20302;-61
2022/11/29 03:05:41;;;;;;;23.63;11.07;;;6.20;99.90;;;;;;5069845;28;20233;-61
2022/11/29 03:08:17;;;;;;;23.33;10.27;;;6.20;99.90;;;;;;5070971;28;20200;-61
2022/11/29 03:10:56;;;;;;;19.83;9.37;;;6.20;99.90;;;;;;5078485;28;20191;-60
2022/11/29 03:13:34;;;;;;;20.87;8.97;;;6.20;99.90;;;;;;5068582;28;20279;-59
2022/11/29 03:16:11;;;;;;;21.57;10.07;;;6.20;99.90;;;;;;5068149;28;20559;-61
2022/11/29 03:18:50;;;;;;;18.97;8.77;;;6.20;99.90;;;;;;5067962;28;20196;-61
2022/11/29 03:21:33;;;;;;;17.57;9.17;;;6.30;99.90;;;;;;5068127;28;20563;-61
2022/11/29 03:24:07;;;;;;;20.50;9.93;;;6.30;99.90;;;;;;5081061;28;20197;-61
2022/11/29 03:26:41;;;;;;;20.00;9.37;;;6.30;99.90;;;;;;5068068;28;20199;-61
2022/11/29 03:29:14;;;;;;;15.40;8.47;;;6.30;99.90;;;;;;5068622;28;20193;-61
2022/11/29 03:31:50;;;;;;;14.97;7.37;;;6.30;99.90;;;;;;5067016;28;20653;-60
2022/11/29 03:34:24;;;;;;;20.00;9.70;;;6.30;99.90;;;;;;5069569;28;20195;-60
2022/11/29 03:37:00;;;;;;;17.67;8.63;;;6.40;99.90;;;;;;5069331;28;20190;-59
2022/11/29 03:39:35;;;;;;;19.10;8.73;;;6.30;99.90;;;;;;5067780;28;20192;-59
2022/11/29 03:42:06;;;;;;;18.67;9.03;;;6.30;99.90;;;;;;5068398;28;20192;-59
2022/11/29 03:44:39;;;;;;;16.43;7.83;;;6.30;99.90;;;;;;5069931;28;20200;-60
2022/11/29 03:47:11;;;;;;;16.90;8.20;;;6.30;99.90;;;;;;5067964;28;20630;-60
2022/11/29 03:49:43;;;;;;;16.23;9.00;;;6.30;99.90;;;;;;5069280;28;20191;-61
2022/11/29 03:52:18;;;;;;;16.33;8.17;;;6.30;99.90;;;;;;5069129;28;20195;-59
2022/11/29 03:54:53;;;;;;;14.80;7.77;;;6.20;99.90;;;;;;5056396;28;20286;-59
2022/11/29 03:57:29;;;;;;;14.73;7.67;;;6.10;99.90;;;;;;5066507;28;20215;-60
2022/11/29 04:00:02;;;;;;;16.97;8.20;;;6.20;99.90;;;;;;5069787;28;20290;-60
2022/11/29 04:03:17;;;;;;;16.57;8.43;;;6.20;99.90;;;;;;5068104;28;20277;-60
2022/11/29 04:06:06;;;;;;;16.40;8.70;;;6.20;99.90;;;;;;5032940;28;20212;-61
2022/11/29 04:08:57;;;;;;;16.50;8.77;;;6.10;99.90;;;;;;5050554;28;20294;-61
2022/11/29 04:11:59;;;;;;;15.90;8.73;;;6.10;99.90;;;;;;5068649;28;20277;-60
2022/11/29 04:15:17;;;;;;;15.50;8.77;;;6.10;99.90;;;;;;5069249;28;20275;-60
2022/11/29 04:18:18;;;;;;;15.30;7.43;;;6.00;99.90;;;;;;5067869;28;20742;-59
2022/11/29 04:21:27;;;;;;;15.60;8.60;;;6.00;99.90;;;;;;5070153;28;20585;-59
2022/11/29 04:24:30;;;;;;;16.83;8.60;;;6.00;99.90;;;;;;5078575;28;20217;-60
2022/11/29 04:27:32;;;;;;;14.67;7.53;;;6.00;99.90;;;;;;5052903;28;20570;-60
2022/11/29 04:30:21;;;;;;;13.43;7.77;;;6.00;99.90;;;;;;5068480;28;20230;-59
2022/11/29 04:33:22;;;;;;;17.20;8.83;;;6.10;99.90;;;;;;5067501;28;20212;-60
2022/11/29 04:36:06;;;;;;;13.47;7.53;;;6.10;99.90;;;;;;5071039;28;20627;-60
2022/11/29 04:39:07;;;;;;;14.83;8.57;;;6.10;99.90;;;;;;5071119;28;20217;-60
2022/11/29 04:42:11;;;;;;;14.37;7.93;;;6.10;99.90;;;;;;5071844;28;20243;-61
2022/11/29 04:44:54;;;;;;;11.17;7.13;;;6.10;99.90;;;;;;5070793;28;20268;-61
2022/11/29 04:47:42;;;;;;;14.40;8.10;;;6.10;99.90;;;;;;5069969;28;20286;-60
2022/11/29 04:50:19;;;;;;;12.03;6.90;;;6.10;99.90;;;;;;5054396;28;20353;-60
2022/11/29 04:53:17;;;;;;;16.07;9.57;;;6.10;99.90;;;;;;5071207;28;20537;-61
2022/11/29 04:55:52;;;;;;;14.53;8.10;;;6.10;99.90;;;;;;5074242;28;20777;-61
2022/11/29 04:58:28;;;;;;;12.33;7.23;;;6.00;99.90;;;;;;5070978;28;20190;-60
2022/11/29 05:01:02;;;;;;;14.07;7.83;;;6.00;99.90;;;;;;5071888;28;20286;-61
2022/11/29 05:03:39;;;;;;;10.70;7.00;;;6.00;99.90;;;;;;5071362;28;20507;-61
2022/11/29 05:06:17;;;;;;;15.77;7.97;;;6.00;99.90;;;;;;5071967;28;20207;-59
2022/11/29 05:08:51;;;;;;;14.60;7.90;;;6.00;99.90;;;;;;5071542;28;20668;-59
2022/11/29 05:11:26;;;;;;;17.13;8.73;;;6.00;99.90;;;;;;5071107;28;20209;-60
2022/11/29 05:14:02;;;;;;;13.87;8.07;;;6.10;99.90;;;;;;5070714;28;20287;-59
2022/11/29 05:16:42;;;;;;;14.87;7.77;;;6.10;99.90;;;;;;5090635;28;20262;-60
2022/11/29 05:19:28;;;;;;;16.20;8.30;;;6.00;99.90;;;;;;5070712;28;20200;-60
2022/11/29 05:22:05;;;;;;;16.10;8.37;;;6.00;99.90;;;;;;5072181;28;20209;-61
2022/11/29 05:24:49;;;;;;;11.93;7.17;;;6.00;99.90;;;;;;5052384;28;20218;-60
2022/11/29 05:27:22;;;;;;;14.57;8.43;;;6.00;99.90;;;;;;5069703;28;20233;-61
2022/11/29 05:30:01;;;;;;;12.90;7.30;;;6.00;99.90;;;;;;5071844;28;20349;-60
2022/11/29 05:32:35;;;;;;;14.80;7.93;;;6.00;99.90;;;;;;5069710;28;20219;-60
2022/11/29 05:35:32;;;;;;;17.07;9.07;;;6.10;99.90;;;;;;5071198;28;20690;-61
2022/11/29 05:38:08;;;;;;;16.17;8.77;;;6.00;99.90;;;;;;5027415;28;20202;-60
2022/11/29 05:40:49;;;;;;;19.07;10.10;;;6.10;99.90;;;;;;5069925;28;20280;-61
2022/11/29 05:43:38;;;;;;;22.90;11.67;;;6.00;99.90;;;;;;5070231;28;20305;-61
2022/11/29 05:46:12;;;;;;;17.57;9.57;;;6.00;99.90;;;;;;5071388;28;20196;-61
2022/11/29 05:48:47;;;;;;;20.07;10.27;;;6.00;99.90;;;;;;5071225;28;20195;-61
2022/11/29 05:51:21;;;;;;;19.43;9.80;;;5.90;99.90;;;;;;5070974;28;21092;-61
2022/11/29 05:53:59;;;;;;;17.27;10.13;;;5.90;99.90;;;;;;5067352;28;20226;-61
2022/11/29 05:56:36;;;;;;;17.20;9.73;;;5.90;99.90;;;;;;5068972;28;20193;-61
2022/11/29 05:59:08;;;;;;;17.97;9.97;;;6.90;99.90;;;;;;5051701;28;20205;-61
2022/11/29 06:01:45;;;;;;;17.90;9.67;;;5.70;99.90;;;;;;5070514;28;20266;-60
2022/11/29 06:04:17;;;;;;;19.17;10.67;;;5.70;99.90;;;;;;5070318;28;20732;-60
2022/11/29 06:06:49;;;;;;;19.80;10.10;;;5.60;99.90;;;;;;5053468;28;20217;-60
2022/11/29 06:09:20;;;;;;;17.57;10.23;;;5.50;99.90;;;;;;5069984;28;20200;-60
2022/11/29 06:11:50;;;;;;;18.93;9.57;;;5.50;99.90;;;;;;5070787;28;20656;-59
2022/11/29 06:14:38;;;;;;;19.97;11.00;;;5.40;99.90;;;;;;5082250;28;20198;-61
2022/11/29 06:17:47;;;;;;;21.63;10.07;;;5.40;99.90;;;;;;5069221;28;20743;-60
2022/11/29 06:20:33;;;;;;;16.27;9.57;;;5.40;99.90;;;;;;5069239;28;20197;-60
2022/11/29 06:23:22;;;;;;;16.87;9.90;;;5.50;99.90;;;;;;5069384;28;20304;-60
2022/11/29 06:26:06;;;;;;;20.00;10.13;;;5.50;99.90;;;;;;5069285;28;20658;-60
2022/11/29 06:28:52;;;;;;;17.83;9.83;;;5.60;99.90;;;;;;5069512;28;20196;-60
2022/11/29 06:31:23;;;;;;;17.20;9.50;;;5.60;99.90;;;;;;5067496;28;20278;-60
2022/11/29 06:34:00;;;;;;;16.83;9.90;;;5.60;99.90;;;;;;5069725;28;20215;-60
2022/11/29 06:36:31;;;;;;;15.77;9.40;;;5.60;99.90;;;;;;5068796;28;20615;-60
2022/11/29 06:38:58;;;;;;;17.87;9.23;;;5.70;99.90;;;;;;5067072;28;20194;-60
2022/11/29 06:41:26;;;;;;;18.10;10.20;;;5.60;99.90;;;;;;5070413;28;20263;-59
2022/11/29 06:43:53;;;;;;;22.10;11.63;;;5.70;99.90;;;;;;5069216;28;20661;-60
2022/11/29 06:46:31;;;;;;;20.37;11.27;;;5.70;99.90;;;;;;5069916;28;20195;-60
2022/11/29 06:49:05;;;;;;;23.93;11.73;;;5.70;99.90;;;;;;5070313;28;20533;-60
2022/11/29 06:51:40;;;;;;;24.30;11.80;;;5.70;99.90;;;;;;5068828;28;20573;-60
2022/11/29 06:54:22;;;;;;;27.80;12.93;;;5.60;99.90;;;;;;5079027;28;20289;-60
2022/11/29 06:56:56;;;;;;;25.57;12.57;;;5.60;99.90;;;;;;5068248;28;20214;-60
2022/11/29 06:59:37;;;;;;;24.70;11.47;;;5.60;99.90;;;;;;5068448;28;20190;-59
2022/11/29 07:02:21;;;;;;;25.70;11.70;;;5.70;99.90;;;;;;5056525;28;20462;-60
2022/11/29 07:05:02;;;;;;;29.10;13.47;;;5.70;99.90;;;;;;5065519;28;20672;-60
2022/11/29 07:07:30;;;;;;;21.37;11.20;;;5.70;99.90;;;;;;5066505;28;20219;-60
2022/11/29 07:09:58;;;;;;;22.70;11.90;;;5.70;99.90;;;;;;5060548;28;20199;-60
2022/11/29 07:12:26;;;;;;;22.10;11.23;;;5.70;99.90;;;;;;5068071;28;20201;-59
2022/11/29 07:14:53;;;;;;;18.97;10.53;;;5.70;99.90;;;;;;5048318;28;20207;-59
2022/11/29 07:17:27;;;;;;;23.60;10.37;;;5.60;99.90;;;;;;5063955;28;20227;-60
2022/11/29 07:20:06;;;;;;;21.93;10.87;;;5.70;99.90;;;;;;5065185;28;20198;-61
2022/11/29 07:22:49;;;;;;;22.30;11.60;;;5.60;99.90;;;;;;5066436;28;20203;-61
2022/11/29 07:25:25;;;;;;;18.27;10.67;;;5.70;99.90;;;;;;5051638;28;20290;-60
2022/11/29 07:28:02;;;;;;;19.20;11.10;;;5.70;99.90;;;;;;5067105;28;20330;-60
2022/11/29 07:30:38;;;;;;;22.53;11.70;;;5.70;99.90;;;;;;5068142;28;20214;-60
2022/11/29 07:33:12;;;;;;;16.73;9.73;;;5.70;99.90;;;;;;5064916;28;20195;-60
2022/11/29 07:35:48;;;;;;;19.13;10.17;;;5.70;99.90;;;;;;5066039;28;20192;-60
2022/11/29 07:38:23;;;;;;;20.53;11.10;;;5.70;99.90;;;;;;5067210;28;20652;-60
2022/11/29 07:40:58;;;;;;;20.97;12.13;;;5.70;99.90;;;;;;5067521;28;20278;-60
2022/11/29 07:43:37;;;;;;;25.70;11.13;;;5.70;99.90;;;;;;5069614;28;20209;-61
2022/11/29 07:46:07;;;;;;;22.73;12.77;;;5.70;99.90;;;;;;5072706;28;20202;-60
2022/11/29 07:48:34;;;;;;;25.30;12.77;;;5.80;99.90;;;;;;5066543;28;20194;-60
2022/11/29 07:51:02;;;;;;;27.00;14.37;;;5.50;99.90;;;;;;5049391;28;20595;-61
2022/11/29 07:53:30;;;;;;;25.93;15.63;;;5.80;99.90;;;;;;5065382;28;20198;-60
2022/11/29 07:55:59;;;;;;;35.43;19.03;;;5.80;99.90;;;;;;5077123;28;20470;-61
2022/11/29 07:58:26;;;;;;;28.00;14.80;;;5.70;99.90;;;;;;5073349;28;20198;-60
2022/11/29 08:00:53;;;;;;;31.33;16.10;;;5.70;99.90;;;;;;5070206;28;20263;-60
2022/11/29 08:03:20;;;;;;;28.47;15.87;;;5.80;99.90;;;;;;5072863;28;20219;-60
2022/11/29 08:05:48;;;;;;;26.10;13.70;;;5.80;99.90;;;;;;5070727;28;20192;-59
2022/11/29 08:08:16;;;;;;;24.07;13.23;;;5.80;99.90;;;;;;5068190;28;20312;-60
2022/11/29 08:10:44;;;;;;;26.10;14.90;;;5.80;99.90;;;;;;5070850;28;20270;-60
2022/11/29 08:13:11;;;;;;;22.17;12.77;;;5.80;99.90;;;;;;5070906;28;20268;-60
2022/11/29 08:15:44;;;;;;;25.30;14.63;;;5.80;99.90;;;;;;5071186;28;20313;-60
2022/11/29 08:18:12;;;;;;;21.33;12.80;;;5.80;99.90;;;;;;5069402;28;20220;-60
2022/11/29 08:20:40;;;;;;;16.37;10.23;;;5.80;99.90;;;;;;5071755;28;20207;-61
2022/11/29 08:23:09;;;;;;;20.13;11.20;;;5.80;99.90;;;;;;5070104;28;20211;-60
2022/11/29 08:25:37;;;;;;;19.30;10.53;;;5.70;99.90;;;;;;5070121;28;20313;-59
2022/11/29 08:28:08;;;;;;;21.47;11.10;;;5.80;99.90;;;;;;5068035;28;20214;-60
2022/11/29 08:30:38;;;;;;;21.00;11.83;;;5.90;99.90;;;;;;5052287;28;20227;-60
2022/11/29 08:33:05;;;;;;;21.23;11.77;;;5.90;99.90;;;;;;5064509;28;20183;-61
2022/11/29 08:35:35;;;;;;;20.67;10.90;;;5.90;99.90;;;;;;5047552;28;20742;-61
2022/11/29 08:38:03;;;;;;;20.43;11.67;;;5.80;99.90;;;;;;5069431;28;20557;-60
2022/11/29 08:40:30;;;;;;;23.57;12.60;;;5.80;99.90;;;;;;5070034;28;20307;-61
2022/11/29 08:42:59;;;;;;;25.00;12.20;;;5.80;99.90;;;;;;5069811;28;20323;-59
2022/11/29 08:45:26;;;;;;;22.33;12.50;;;5.80;99.90;;;;;;5054970;28;20222;-59
2022/11/29 08:47:53;;;;;;;20.97;11.03;;;5.80;99.90;;;;;;5066528;28;20258;-60
2022/11/29 08:50:24;;;;;;;20.37;10.57;;;5.80;99.90;;;;;;5070382;28;20207;-60
2022/11/29 08:55:39;;;;;;;16.67;9.77;;;5.80;99.90;;;;;;5069952;28;20199;-60
2022/11/29 08:58:09;;;;;;;19.10;11.13;;;5.80;99.90;;;;;;5069009;28;20196;-60
2022/11/29 09:00:37;;;;;;;22.37;10.90;;;5.80;99.90;;;;;;5069789;28;20223;-60
2022/11/29 09:06:05;;;;;;;22.23;11.70;;;5.70;99.90;;;;;;5008002;28;20266;-60
2022/11/29 09:08:32;;;;;;;21.53;11.67;;;5.80;99.90;;;;;;5055584;28;20211;-60
2022/11/29 09:10:59;;;;;;;21.10;11.07;;;5.70;99.90;;;;;;5051800;28;20199;-60
2022/11/29 09:13:28;;;;;;;21.50;11.43;;;5.80;99.90;;;;;;5069394;28;20195;-60
2022/11/29 09:15:56;;;;;;;53.90;24.83;;;5.80;99.90;;;;;;5073915;28;20285;-60
2022/11/29 09:18:27;;;;;;;37.43;18.50;;;5.80;99.90;;;;;;5069946;28;20191;-60
2022/11/29 09:20:54;;;;;;;28.63;13.90;;;5.80;99.90;;;;;;5069264;28;20233;-60
2022/11/29 09:23:21;;;;;;;25.93;13.30;;;5.80;99.90;;;;;;5068446;28;20269;-61
2022/11/29 09:25:54;;;;;;;38.10;16.30;;;5.80;99.90;;;;;;5069910;28;20207;-61
2022/11/29 09:28:24;;;;;;;26.90;14.17;;;5.70;99.90;;;;;;5069013;28;20462;-60
2022/11/29 09:30:52;;;;;;;25.40;13.87;;;5.70;99.90;;;;;;5051297;28;20198;-61
2022/11/29 09:33:19;;;;;;;22.97;12.50;;;5.70;99.90;;;;;;5067920;28;20226;-60
2022/11/29 09:35:47;;;;;;;26.10;13.30;;;5.70;99.90;;;;;;5067155;28;20210;-60
2022/11/29 09:38:16;;;;;;;24.17;12.63;;;5.70;99.90;;;;;;5068841;28;20259;-60
2022/11/29 09:40:53;;;;;;;23.63;12.10;;;5.70;99.90;;;;;;5068164;28;20269;-61
2022/11/29 09:43:29;;;;;;;23.50;11.97;;;5.80;99.90;;;;;;5066435;28;20234;-60
2022/11/29 09:46:05;;;;;;;23.97;12.30;;;5.80;99.90;;;;;;5067656;28;20209;-60
2022/11/29 09:49:03;;;;;;;20.90;11.37;;;5.80;99.90;;;;;;5066868;28;20270;-61
2022/11/29 09:51:37;;;;;;;24.80;12.40;;;5.80;99.90;;;;;;5044166;28;20199;-60
2022/11/29 09:54:19;;;;;;;27.90;13.77;;;5.90;99.90;;;;;;5065975;28;20214;-60
2022/11/29 09:56:49;;;;;;;25.67;12.93;;;5.90;99.90;;;;;;5067677;28;20683;-61
2022/11/29 09:59:24;;;;;;;22.77;11.67;;;5.90;99.90;;;;;;5068267;28;20328;-62
2022/11/29 10:02:01;;;;;;;26.60;13.90;;;5.90;99.90;;;;;;5067340;28;20618;-63
2022/11/29 10:04:35;;;;;;;25.37;12.70;;;5.90;99.90;;;;;;5068008;28;20230;-62
2022/11/29 10:07:11;;;;;;;31.97;15.30;;;5.90;99.90;;;;;;5047608;28;20223;-62
2022/11/29 10:09:48;;;;;;;29.03;14.43;;;5.90;99.90;;;;;;5067712;28;20388;-61
2022/11/29 10:12:22;;;;;;;30.90;16.23;;;5.90;99.90;;;;;;5056844;28;20302;-61
2022/11/29 10:14:51;;;;;;;27.07;13.87;;;5.80;99.90;;;;;;5068837;28;20269;-60
2022/11/29 10:17:31;;;;;;;27.13;13.53;;;5.70;99.90;;;;;;5065123;28;20786;-61
2022/11/29 10:20:03;;;;;;;32.60;15.07;;;5.80;99.90;;;;;;5067714;28;20268;-61
2022/11/29 10:22:40;;;;;;;32.50;15.37;;;5.70;99.90;;;;;;5069454;28;20294;-61
2022/11/29 10:25:12;;;;;;;27.40;13.97;;;5.70;99.90;;;;;;5067881;28;20197;-60
2022/11/29 10:27:40;;;;;;;30.77;15.43;;;5.80;99.90;;;;;;5069294;28;20203;-60
2022/11/29 10:30:15;;;;;;;26.13;12.43;;;5.80;99.90;;;;;;5050033;28;20227;-61
2022/11/29 10:32:46;;;;;;;28.80;13.10;;;5.90;99.90;;;;;;5064843;28;20184;-61
2022/11/29 10:35:14;;;;;;;23.43;12.13;;;5.00;99.90;;;;;;5066275;28;20299;-61
2022/11/29 10:37:41;;;;;;;34.20;15.53;;;5.90;99.90;;;;;;5067073;28;20313;-61
2022/11/29 10:40:14;;;;;;;34.93;16.47;;;5.90;99.90;;;;;;5049440;28;20287;-61
2022/11/29 10:42:54;;;;;;;31.00;15.70;;;5.90;99.90;;;;;;5067524;28;20218;-61
2022/11/29 10:45:33;;;;;;;25.57;13.60;;;5.80;99.90;;;;;;5067780;28;20190;-61
2022/11/29 10:48:06;;;;;;;25.63;13.47;;;5.80;99.90;;;;;;5067040;28;20616;-61
2022/11/29 10:50:36;;;;;;;30.77;15.10;;;5.90;99.90;;;;;;5072257;28;20277;-60
2022/11/29 10:53:06;;;;;;;35.93;15.50;;;5.90;99.90;;;;;;5066145;28;20213;-61
2022/11/29 10:55:39;;;;;;;26.00;13.37;;;5.80;99.90;;;;;;5065608;28;20308;-60
2022/11/29 10:58:15;;;;;;;29.57;15.33;;;5.90;99.90;;;;;;5065332;28;20221;-60
2022/11/29 11:00:45;;;;;;;31.47;15.13;;;5.90;99.90;;;;;;5071645;28;20197;-60
2022/11/29 11:03:24;;;;;;;28.23;14.37;;;5.90;99.90;;;;;;5069228;28;20288;-60
2022/11/29 11:06:00;;;;;;;36.97;16.20;;;6.00;99.90;;;;;;5068855;28;20226;-61
2022/11/29 11:08:28;;;;;;;31.63;15.43;;;6.00;99.90;;;;;;5072235;28;20187;-59
2022/11/29 11:10:56;;;;;;;29.70;14.67;;;6.00;99.90;;;;;;5066594;28;20205;-60
2022/11/29 11:13:25;;;;;;;28.90;14.30;;;5.90;99.90;;;;;;5068073;28;20286;-61
2022/11/29 11:15:57;;;;;;;25.63;13.47;;;5.90;99.90;;;;;;5067562;28;20218;-60
2022/11/29 11:18:29;;;;;;;29.60;15.20;;;5.90;99.90;;;;;;5047392;28;20217;-60
2022/11/29 11:20:59;;;;;;;30.07;15.17;;;5.90;99.90;;;;;;5067241;28;20230;-61
2022/11/29 11:23:29;;;;;;;34.33;15.40;;;5.90;99.90;;;;;;5066114;28;20203;-60
2022/11/29 11:25:59;;;;;;;31.63;15.60;;;6.00;99.90;;;;;;5066316;28;21137;-60
2022/11/29 11:28:28;;;;;;;28.30;13.83;;;5.90;99.90;;;;;;5064710;28;20685;-60
2022/11/29 11:30:58;;;;;;;35.60;16.90;;;5.90;99.90;;;;;;5074080;28;20301;-60
2022/11/29 11:33:29;;;;;;;33.73;15.87;;;6.00;99.90;;;;;;5070237;28;20196;-60
2022/11/29 11:36:09;;;;;;;33.13;14.87;;;5.90;99.90;;;;;;5080022;28;20197;-61
2022/11/29 11:38:38;;;;;;;20.87;11.40;;;5.90;99.90;;;;;;5054155;28;20202;-60
2022/11/29 11:41:18;;;;;;;30.97;15.13;;;5.90;99.90;;;;;;5073559;28;20203;-60
2022/11/29 11:43:53;;;;;;;33.23;14.83;;;6.00;99.90;;;;;;5053441;28;20260;-59
2022/11/29 11:46:20;;;;;;;36.47;15.60;;;5.90;99.90;;;;;;5074112;28;20218;-60
2022/11/29 11:48:50;;;;;;;33.93;17.17;;;5.90;99.90;;;;;;5077681;28;20655;-59
2022/11/29 11:51:24;;;;;;;33.63;17.37;;;6.00;99.90;;;;;;5074486;28;20194;-60
2022/11/29 11:53:55;;;;;;;33.53;15.73;;;7.00;99.90;;;;;;5067581;28;20285;-60
2022/11/29 11:56:24;;;;;;;30.47;14.80;;;6.00;99.90;;;;;;5083513;28;20236;-61
2022/11/29 11:58:54;;;;;;;23.30;12.50;;;5.90;99.90;;;;;;5051645;28;20199;-61
2022/11/29 12:01:29;;;;;;;26.23;12.83;;;6.00;99.90;;;;;;5073822;28;20199;-61
2022/11/29 12:04:05;;;;;;;24.27;13.07;;;6.00;99.90;;;;;;5071032;28;20226;-61
2022/11/29 12:06:43;;;;;;;21.10;11.20;;;6.00;99.90;;;;;;5070638;28;20652;-61
2022/11/29 12:09:28;;;;;;;24.53;12.83;;;6.00;99.90;;;;;;5078645;28;20272;-61
2022/11/29 12:12:03;;;;;;;26.50;13.47;;;6.00;99.90;;;;;;5069314;28;20287;-61
2022/11/29 12:14:39;;;;;;;27.43;14.37;;;5.90;99.90;;;;;;5073949;28;20215;-60
2022/11/29 12:17:15;;;;;;;24.53;13.50;;;5.90;99.90;;;;;;5054234;28;20743;-62
2022/11/29 12:19:52;;;;;;;25.20;12.63;;;5.90;99.90;;;;;;5071414;28;20722;-61
2022/11/29 12:22:24;;;;;;;22.57;11.97;;;5.90;99.90;;;;;;5073002;28;20648;-61
2022/11/29 12:24:57;;;;;;;27.83;14.50;;;5.90;99.90;;;;;;5073762;28;20193;-60
2022/11/29 12:27:24;;;;;;;28.73;14.40;;;5.90;99.90;;;;;;5049645;28;20277;-61
2022/11/29 12:29:51;;;;;;;23.80;12.70;;;5.80;99.90;;;;;;5063851;28;20207;-60
2022/11/29 12:32:47;;;;;;;28.00;13.83;;;5.80;99.90;;;;;;5053590;28;20203;-60
2022/11/29 12:35:36;;;;;;;24.93;12.77;;;5.80;99.90;;;;;;5071050;28;20597;-61
2022/11/29 12:38:16;;;;;;;22.20;11.70;;;5.80;99.90;;;;;;5072371;28;20202;-60
2022/11/29 12:40:53;;;;;;;23.33;13.07;;;5.90;99.90;;;;;;5071654;28;20188;-59
2022/11/29 12:43:31;;;;;;;28.00;14.07;;;5.90;99.90;;;;;;5069020;28;20222;-61
2022/11/29 12:46:07;;;;;;;27.67;13.53;;;5.90;99.90;;;;;;5070120;28;20693;-60
2022/11/29 12:48:42;;;;;;;25.77;13.13;;;5.90;99.90;;;;;;5068014;28;20199;-60
2022/11/29 12:51:22;;;;;;;22.30;11.60;;;5.80;99.90;;;;;;5066891;28;20508;-60
2022/11/29 12:54:06;;;;;;;24.97;12.60;;;5.80;99.90;;;;;;5054365;28;20198;-61
2022/11/29 12:56:38;;;;;;;23.87;12.53;;;5.80;99.90;;;;;;5068095;28;20200;-60
2022/11/29 12:59:20;;;;;;;29.03;14.93;;;5.90;99.90;;;;;;5072031;28;20196;-61
2022/11/29 13:02:00;;;;;;;28.33;15.27;;;5.90;99.90;;;;;;5068041;28;20187;-60
2022/11/29 13:04:37;;;;;;;28.57;15.20;;;5.90;99.90;;;;;;5070647;28;20710;-62
2022/11/29 13:07:18;;;;;;;25.47;14.10;;;5.90;99.90;;;;;;5066850;28;20213;-60
2022/11/29 13:10:17;;;;;;;30.07;15.83;;;5.80;99.90;;;;;;5067328;28;20272;-60
2022/11/29 13:12:49;;;;;;;27.33;14.20;;;5.80;99.90;;;;;;5043473;28;20702;-60
2022/11/29 13:15:19;;;;;;;30.67;14.67;;;5.80;99.90;;;;;;5069841;28;20618;-61
2022/11/29 13:17:53;;;;;;;24.37;12.87;;;5.80;99.90;;;;;;5068552;28;20214;-60
2022/11/29 13:20:32;;;;;;;25.57;13.23;;;5.80;99.90;;;;;;5067686;28;20198;-61
2022/11/29 13:23:08;;;;;;;27.20;14.30;;;5.80;99.90;;;;;;5067545;28;20210;-61
2022/11/29 13:25:41;;;;;;;25.97;13.23;;;5.80;99.90;;;;;;5070269;28;20190;-60
2022/11/29 13:28:17;;;;;;;27.50;14.43;;;5.90;99.90;;;;;;5073457;28;20200;-60